sensor_id;sensor_type;location;lat;lon;timestamp;P1;durP1;ratioP1;P2;durP2;ratioP2
59300;SDS011;45073;52.740;6.784;2023-03-01T00:01:45;12.52;;;6.43;;
59300;SDS011;45073;52.740;6.784;2023-03-01T00:04:10;12.90;;;6.15;;
59300;SDS011;45073;52.740;6.784;2023-03-01T00:06:36;14.38;;;6.82;;
59300;SDS011;45073;52.740;6.784;2023-03-01T00:09:02;11.00;;;5.97;;
59300;SDS011;45073;52.740;6.784;2023-03-01T00:11:29;12.18;;;6.43;;
59300;SDS011;45073;52.740;6.784;2023-03-01T00:13:56;12.52;;;6.30;;
59300;SDS011;45073;52.740;6.784;2023-03-01T00:16:25;13.55;;;6.47;;
59300;SDS011;45073;52.740;6.784;2023-03-01T00:18:53;11.27;;;6.20;;
59300;SDS011;45073;52.740;6.784;2023-03-01T00:21:20;11.73;;;5.90;;
59300;SDS011;45073;52.740;6.784;2023-03-01T00:23:47;10.55;;;5.60;;
59300;SDS011;45073;52.740;6.784;2023-03-01T00:26:13;12.40;;;6.22;;
59300;SDS011;45073;52.740;6.784;2023-03-01T00:28:40;10.32;;;5.50;;
59300;SDS011;45073;52.740;6.784;2023-03-01T00:31:07;12.52;;;6.57;;
59300;SDS011;45073;52.740;6.784;2023-03-01T00:33:35;13.10;;;6.43;;
59300;SDS011;45073;52.740;6.784;2023-03-01T00:36:02;13.23;;;5.60;;
59300;SDS011;45073;52.740;6.784;2023-03-01T00:38:28;11.50;;;6.10;;
59300;SDS011;45073;52.740;6.784;2023-03-01T00:40:54;14.10;;;7.10;;
59300;SDS011;45073;52.740;6.784;2023-03-01T00:43:20;11.48;;;6.05;;
59300;SDS011;45073;52.740;6.784;2023-03-01T00:45:46;10.88;;;5.78;;
59300;SDS011;45073;52.740;6.784;2023-03-01T00:48:12;13.15;;;6.22;;
59300;SDS011;45073;52.740;6.784;2023-03-01T00:50:38;16.52;;;7.65;;
59300;SDS011;45073;52.740;6.784;2023-03-01T00:53:04;14.25;;;8.25;;
59300;SDS011;45073;52.740;6.784;2023-03-01T00:55:30;14.27;;;7.70;;
59300;SDS011;45073;52.740;6.784;2023-03-01T00:57:56;14.23;;;7.53;;
59300;SDS011;45073;52.740;6.784;2023-03-01T01:00:21;13.15;;;7.18;;
59300;SDS011;45073;52.740;6.784;2023-03-01T01:02:47;15.85;;;7.22;;
59300;SDS011;45073;52.740;6.784;2023-03-01T01:05:15;16.67;;;7.55;;
59300;SDS011;45073;52.740;6.784;2023-03-01T01:07:46;15.00;;;6.50;;
59300;SDS011;45073;52.740;6.784;2023-03-01T01:10:13;14.50;;;7.30;;
59300;SDS011;45073;52.740;6.784;2023-03-01T01:12:42;12.05;;;7.13;;
59300;SDS011;45073;52.740;6.784;2023-03-01T01:15:11;14.52;;;6.97;;
59300;SDS011;45073;52.740;6.784;2023-03-01T01:17:39;12.07;;;7.15;;
59300;SDS011;45073;52.740;6.784;2023-03-01T01:20:05;12.45;;;6.43;;
59300;SDS011;45073;52.740;6.784;2023-03-01T01:22:32;14.73;;;7.43;;
59300;SDS011;45073;52.740;6.784;2023-03-01T01:24:58;14.63;;;6.05;;
59300;SDS011;45073;52.740;6.784;2023-03-01T01:27:23;11.88;;;5.53;;
59300;SDS011;45073;52.740;6.784;2023-03-01T01:29:49;10.95;;;6.47;;
59300;SDS011;45073;52.740;6.784;2023-03-01T01:32:15;14.35;;;6.15;;
59300;SDS011;45073;52.740;6.784;2023-03-01T01:34:40;11.93;;;5.93;;
59300;SDS011;45073;52.740;6.784;2023-03-01T01:37:06;11.98;;;5.60;;
59300;SDS011;45073;52.740;6.784;2023-03-01T01:39:33;14.75;;;7.13;;
59300;SDS011;45073;52.740;6.784;2023-03-01T01:42:01;14.10;;;6.28;;
59300;SDS011;45073;52.740;6.784;2023-03-01T01:44:27;17.52;;;8.18;;
59300;SDS011;45073;52.740;6.784;2023-03-01T01:47:07;12.85;;;6.68;;
59300;SDS011;45073;52.740;6.784;2023-03-01T01:55:02;16.65;;;7.82;;
59300;SDS011;45073;52.740;6.784;2023-03-01T01:57:33;20.02;;;8.65;;
59300;SDS011;45073;52.740;6.784;2023-03-01T02:00:18;19.40;;;8.80;;
59300;SDS011;45073;52.740;6.784;2023-03-01T02:02:46;15.07;;;7.45;;
59300;SDS011;45073;52.740;6.784;2023-03-01T02:08:14;15.80;;;7.95;;
59300;SDS011;45073;52.740;6.784;2023-03-01T02:10:43;17.38;;;7.65;;
59300;SDS011;45073;52.740;6.784;2023-03-01T02:13:10;14.25;;;7.78;;
59300;SDS011;45073;52.740;6.784;2023-03-01T02:15:37;15.10;;;8.10;;
59300;SDS011;45073;52.740;6.784;2023-03-01T02:18:05;15.23;;;7.65;;
59300;SDS011;45073;52.740;6.784;2023-03-01T02:20:39;15.88;;;8.20;;
59300;SDS011;45073;52.740;6.784;2023-03-01T02:23:10;16.48;;;8.57;;
59300;SDS011;45073;52.740;6.784;2023-03-01T02:30:43;16.83;;;9.55;;
59300;SDS011;45073;52.740;6.784;2023-03-01T02:33:31;13.23;;;6.93;;
59300;SDS011;45073;52.740;6.784;2023-03-01T02:36:01;16.63;;;6.55;;
59300;SDS011;45073;52.740;6.784;2023-03-01T02:38:29;17.23;;;7.18;;
59300;SDS011;45073;52.740;6.784;2023-03-01T02:40:56;13.75;;;7.82;;
59300;SDS011;45073;52.740;6.784;2023-03-01T02:43:22;43.85;;;9.07;;
59300;SDS011;45073;52.740;6.784;2023-03-01T02:45:52;44.30;;;8.60;;
59300;SDS011;45073;52.740;6.784;2023-03-01T02:48:21;11.43;;;6.22;;
59300;SDS011;45073;52.740;6.784;2023-03-01T02:53:32;11.48;;;7.03;;
59300;SDS011;45073;52.740;6.784;2023-03-01T02:56:07;15.73;;;8.23;;
59300;SDS011;45073;52.740;6.784;2023-03-01T02:58:38;15.20;;;8.57;;
59300;SDS011;45073;52.740;6.784;2023-03-01T03:01:10;14.20;;;8.80;;
59300;SDS011;45073;52.740;6.784;2023-03-01T03:03:36;15.07;;;9.68;;
59300;SDS011;45073;52.740;6.784;2023-03-01T03:06:02;17.88;;;10.50;;
59300;SDS011;45073;52.740;6.784;2023-03-01T03:08:27;13.50;;;6.85;;
59300;SDS011;45073;52.740;6.784;2023-03-01T03:10:53;11.00;;;5.95;;
59300;SDS011;45073;52.740;6.784;2023-03-01T03:13:19;11.40;;;6.50;;
59300;SDS011;45073;52.740;6.784;2023-03-01T03:15:44;10.95;;;5.57;;
59300;SDS011;45073;52.740;6.784;2023-03-01T03:18:12;11.82;;;6.85;;
59300;SDS011;45073;52.740;6.784;2023-03-01T03:20:40;14.65;;;6.63;;
59300;SDS011;45073;52.740;6.784;2023-03-01T03:23:07;10.80;;;5.50;;
59300;SDS011;45073;52.740;6.784;2023-03-01T03:25:33;10.23;;;6.20;;
59300;SDS011;45073;52.740;6.784;2023-03-01T03:28:02;10.98;;;6.10;;
59300;SDS011;45073;52.740;6.784;2023-03-01T03:30:34;14.18;;;6.38;;
59300;SDS011;45073;52.740;6.784;2023-03-01T03:33:01;11.10;;;5.72;;
59300;SDS011;45073;52.740;6.784;2023-03-01T03:35:31;10.75;;;5.40;;
59300;SDS011;45073;52.740;6.784;2023-03-01T03:38:00;11.50;;;6.80;;
59300;SDS011;45073;52.740;6.784;2023-03-01T03:40:33;12.82;;;5.75;;
59300;SDS011;45073;52.740;6.784;2023-03-01T03:43:05;10.27;;;5.53;;
59300;SDS011;45073;52.740;6.784;2023-03-01T03:45:33;9.88;;;5.25;;
59300;SDS011;45073;52.740;6.784;2023-03-01T03:48:00;10.57;;;6.10;;
59300;SDS011;45073;52.740;6.784;2023-03-01T03:50:26;10.57;;;5.85;;
59300;SDS011;45073;52.740;6.784;2023-03-01T03:52:52;11.35;;;6.75;;
59300;SDS011;45073;52.740;6.784;2023-03-01T03:55:17;10.52;;;6.28;;
59300;SDS011;45073;52.740;6.784;2023-03-01T03:57:44;10.50;;;6.28;;
59300;SDS011;45073;52.740;6.784;2023-03-01T04:00:19;13.77;;;6.25;;
59300;SDS011;45073;52.740;6.784;2023-03-01T04:02:47;12.05;;;6.63;;
59300;SDS011;45073;52.740;6.784;2023-03-01T04:05:15;12.18;;;6.43;;
59300;SDS011;45073;52.740;6.784;2023-03-01T04:07:42;12.48;;;6.68;;
59300;SDS011;45073;52.740;6.784;2023-03-01T04:10:13;15.73;;;6.53;;
59300;SDS011;45073;52.740;6.784;2023-03-01T04:12:40;14.05;;;7.13;;
59300;SDS011;45073;52.740;6.784;2023-03-01T04:15:08;12.45;;;6.95;;
59300;SDS011;45073;52.740;6.784;2023-03-01T04:17:42;13.50;;;7.38;;
59300;SDS011;45073;52.740;6.784;2023-03-01T04:20:10;12.85;;;7.03;;
59300;SDS011;45073;52.740;6.784;2023-03-01T04:22:38;11.25;;;6.20;;
59300;SDS011;45073;52.740;6.784;2023-03-01T04:25:04;11.85;;;6.45;;
59300;SDS011;45073;52.740;6.784;2023-03-01T04:27:32;13.75;;;7.70;;
59300;SDS011;45073;52.740;6.784;2023-03-01T04:29:58;12.98;;;6.85;;
59300;SDS011;45073;52.740;6.784;2023-03-01T04:32:24;13.88;;;6.90;;
59300;SDS011;45073;52.740;6.784;2023-03-01T04:34:49;13.52;;;7.13;;
59300;SDS011;45073;52.740;6.784;2023-03-01T04:37:15;14.90;;;7.85;;
59300;SDS011;45073;52.740;6.784;2023-03-01T04:39:41;13.18;;;6.88;;
59300;SDS011;45073;52.740;6.784;2023-03-01T04:42:14;12.85;;;7.10;;
59300;SDS011;45073;52.740;6.784;2023-03-01T04:44:40;14.95;;;8.23;;
59300;SDS011;45073;52.740;6.784;2023-03-01T04:47:05;13.55;;;7.20;;
59300;SDS011;45073;52.740;6.784;2023-03-01T04:49:31;14.13;;;8.13;;
59300;SDS011;45073;52.740;6.784;2023-03-01T04:51:57;15.10;;;7.40;;
59300;SDS011;45073;52.740;6.784;2023-03-01T04:54:32;14.07;;;7.95;;
59300;SDS011;45073;52.740;6.784;2023-03-01T04:56:58;14.70;;;8.48;;
59300;SDS011;45073;52.740;6.784;2023-03-01T04:59:24;17.52;;;9.52;;
59300;SDS011;45073;52.740;6.784;2023-03-01T05:01:53;22.52;;;10.25;;
59300;SDS011;45073;52.740;6.784;2023-03-01T05:04:21;15.15;;;9.05;;
59300;SDS011;45073;52.740;6.784;2023-03-01T05:06:50;16.63;;;8.90;;
59300;SDS011;45073;52.740;6.784;2023-03-01T05:09:15;16.45;;;8.77;;
59300;SDS011;45073;52.740;6.784;2023-03-01T05:11:41;17.77;;;8.80;;
59300;SDS011;45073;52.740;6.784;2023-03-01T05:14:08;20.27;;;11.13;;
59300;SDS011;45073;52.740;6.784;2023-03-01T05:16:34;20.73;;;9.82;;
59300;SDS011;45073;52.740;6.784;2023-03-01T05:19:01;16.23;;;8.77;;
59300;SDS011;45073;52.740;6.784;2023-03-01T05:21:36;16.58;;;8.95;;
59300;SDS011;45073;52.740;6.784;2023-03-01T05:24:22;17.95;;;9.80;;
59300;SDS011;45073;52.740;6.784;2023-03-01T05:26:48;15.77;;;8.55;;
59300;SDS011;45073;52.740;6.784;2023-03-01T05:29:16;17.10;;;8.65;;
59300;SDS011;45073;52.740;6.784;2023-03-01T05:31:43;16.17;;;8.77;;
59300;SDS011;45073;52.740;6.784;2023-03-01T05:34:08;18.38;;;10.13;;
59300;SDS011;45073;52.740;6.784;2023-03-01T05:36:34;16.67;;;8.43;;
59300;SDS011;45073;52.740;6.784;2023-03-01T05:39:00;19.02;;;9.45;;
59300;SDS011;45073;52.740;6.784;2023-03-01T05:41:25;15.52;;;9.23;;
59300;SDS011;45073;52.740;6.784;2023-03-01T05:43:51;14.80;;;7.75;;
59300;SDS011;45073;52.740;6.784;2023-03-01T05:46:16;16.00;;;9.35;;
59300;SDS011;45073;52.740;6.784;2023-03-01T05:48:42;17.50;;;9.77;;
59300;SDS011;45073;52.740;6.784;2023-03-01T05:51:08;17.75;;;9.82;;
59300;SDS011;45073;52.740;6.784;2023-03-01T05:53:34;16.27;;;9.60;;
59300;SDS011;45073;52.740;6.784;2023-03-01T05:56:02;19.17;;;9.85;;
59300;SDS011;45073;52.740;6.784;2023-03-01T05:58:28;13.40;;;8.15;;
59300;SDS011;45073;52.740;6.784;2023-03-01T06:00:54;17.17;;;8.98;;
59300;SDS011;45073;52.740;6.784;2023-03-01T06:03:20;15.77;;;8.43;;
59300;SDS011;45073;52.740;6.784;2023-03-01T06:05:45;19.45;;;10.07;;
59300;SDS011;45073;52.740;6.784;2023-03-01T06:08:11;15.32;;;8.50;;
59300;SDS011;45073;52.740;6.784;2023-03-01T06:10:38;17.25;;;9.15;;
59300;SDS011;45073;52.740;6.784;2023-03-01T06:13:04;17.52;;;9.25;;
59300;SDS011;45073;52.740;6.784;2023-03-01T06:15:30;15.32;;;8.95;;
59300;SDS011;45073;52.740;6.784;2023-03-01T06:17:55;18.05;;;9.82;;
59300;SDS011;45073;52.740;6.784;2023-03-01T06:20:24;16.60;;;9.80;;
59300;SDS011;45073;52.740;6.784;2023-03-01T06:22:51;17.67;;;9.77;;
59300;SDS011;45073;52.740;6.784;2023-03-01T06:25:21;18.55;;;10.20;;
59300;SDS011;45073;52.740;6.784;2023-03-01T06:27:48;18.83;;;9.95;;
59300;SDS011;45073;52.740;6.784;2023-03-01T06:30:15;17.13;;;9.57;;
59300;SDS011;45073;52.740;6.784;2023-03-01T06:32:42;15.07;;;8.38;;
59300;SDS011;45073;52.740;6.784;2023-03-01T06:35:11;20.35;;;10.23;;
59300;SDS011;45073;52.740;6.784;2023-03-01T06:37:38;16.30;;;9.13;;
59300;SDS011;45073;52.740;6.784;2023-03-01T06:40:04;18.65;;;9.90;;
59300;SDS011;45073;52.740;6.784;2023-03-01T06:42:36;17.25;;;10.07;;
59300;SDS011;45073;52.740;6.784;2023-03-01T06:45:06;17.42;;;10.52;;
59300;SDS011;45073;52.740;6.784;2023-03-01T06:47:33;19.17;;;10.32;;
59300;SDS011;45073;52.740;6.784;2023-03-01T06:49:59;20.38;;;9.65;;
59300;SDS011;45073;52.740;6.784;2023-03-01T06:52:25;17.58;;;9.55;;
59300;SDS011;45073;52.740;6.784;2023-03-01T06:54:51;17.70;;;9.05;;
59300;SDS011;45073;52.740;6.784;2023-03-01T06:57:16;15.82;;;8.93;;
59300;SDS011;45073;52.740;6.784;2023-03-01T06:59:42;20.58;;;9.70;;
59300;SDS011;45073;52.740;6.784;2023-03-01T07:02:11;17.63;;;9.60;;
59300;SDS011;45073;52.740;6.784;2023-03-01T07:04:37;20.00;;;9.52;;
59300;SDS011;45073;52.740;6.784;2023-03-01T07:07:03;14.30;;;8.63;;
59300;SDS011;45073;52.740;6.784;2023-03-01T07:09:28;17.90;;;8.70;;
59300;SDS011;45073;52.740;6.784;2023-03-01T07:11:54;15.30;;;8.65;;
59300;SDS011;45073;52.740;6.784;2023-03-01T07:14:21;17.83;;;10.20;;
59300;SDS011;45073;52.740;6.784;2023-03-01T07:16:49;19.30;;;10.68;;
59300;SDS011;45073;52.740;6.784;2023-03-01T07:19:15;20.92;;;11.35;;
59300;SDS011;45073;52.740;6.784;2023-03-01T07:21:40;19.33;;;10.70;;
59300;SDS011;45073;52.740;6.784;2023-03-01T07:24:06;18.52;;;11.63;;
59300;SDS011;45073;52.740;6.784;2023-03-01T07:26:32;16.88;;;9.90;;
59300;SDS011;45073;52.740;6.784;2023-03-01T07:28:59;16.70;;;10.07;;
59300;SDS011;45073;52.740;6.784;2023-03-01T07:31:25;17.25;;;10.05;;
59300;SDS011;45073;52.740;6.784;2023-03-01T07:33:53;17.30;;;9.68;;
59300;SDS011;45073;52.740;6.784;2023-03-01T07:36:19;16.85;;;10.52;;
59300;SDS011;45073;52.740;6.784;2023-03-01T07:38:45;21.67;;;11.95;;
59300;SDS011;45073;52.740;6.784;2023-03-01T07:41:10;19.25;;;10.55;;
59300;SDS011;45073;52.740;6.784;2023-03-01T07:43:36;18.85;;;10.80;;
59300;SDS011;45073;52.740;6.784;2023-03-01T07:46:02;21.25;;;11.73;;
59300;SDS011;45073;52.740;6.784;2023-03-01T07:48:28;18.35;;;10.57;;
59300;SDS011;45073;52.740;6.784;2023-03-01T07:50:57;19.10;;;9.70;;
59300;SDS011;45073;52.740;6.784;2023-03-01T07:53:23;25.13;;;12.27;;
59300;SDS011;45073;52.740;6.784;2023-03-01T07:55:49;20.70;;;11.05;;
59300;SDS011;45073;52.740;6.784;2023-03-01T07:58:15;19.10;;;10.52;;
59300;SDS011;45073;52.740;6.784;2023-03-01T08:00:40;22.00;;;11.55;;
59300;SDS011;45073;52.740;6.784;2023-03-01T08:03:06;20.23;;;10.55;;
59300;SDS011;45073;52.740;6.784;2023-03-01T08:05:32;22.00;;;11.70;;
59300;SDS011;45073;52.740;6.784;2023-03-01T08:07:57;19.42;;;11.45;;
59300;SDS011;45073;52.740;6.784;2023-03-01T08:10:23;24.15;;;11.60;;
59300;SDS011;45073;52.740;6.784;2023-03-01T08:12:50;22.55;;;12.13;;
59300;SDS011;45073;52.740;6.784;2023-03-01T08:15:17;22.98;;;12.23;;
59300;SDS011;45073;52.740;6.784;2023-03-01T08:17:43;20.00;;;12.73;;
59300;SDS011;45073;52.740;6.784;2023-03-01T08:20:09;23.27;;;12.90;;
59300;SDS011;45073;52.740;6.784;2023-03-01T08:22:37;22.42;;;13.35;;
59300;SDS011;45073;52.740;6.784;2023-03-01T08:25:03;23.75;;;13.90;;
59300;SDS011;45073;52.740;6.784;2023-03-01T08:27:28;23.73;;;13.95;;
59300;SDS011;45073;52.740;6.784;2023-03-01T08:29:54;24.00;;;14.85;;
59300;SDS011;45073;52.740;6.784;2023-03-01T08:32:20;22.15;;;14.65;;
59300;SDS011;45073;52.740;6.784;2023-03-01T08:34:46;24.90;;;13.43;;
59300;SDS011;45073;52.740;6.784;2023-03-01T08:37:13;26.48;;;14.15;;
59300;SDS011;45073;52.740;6.784;2023-03-01T08:39:38;24.05;;;12.73;;
59300;SDS011;45073;52.740;6.784;2023-03-01T08:42:04;21.52;;;13.75;;
59300;SDS011;45073;52.740;6.784;2023-03-01T08:44:30;23.67;;;15.20;;
59300;SDS011;45073;52.740;6.784;2023-03-01T08:46:55;20.30;;;12.68;;
59300;SDS011;45073;52.740;6.784;2023-03-01T08:49:22;21.98;;;12.27;;
59300;SDS011;45073;52.740;6.784;2023-03-01T08:51:48;21.75;;;12.40;;
59300;SDS011;45073;52.740;6.784;2023-03-01T08:54:17;25.63;;;12.07;;
59300;SDS011;45073;52.740;6.784;2023-03-01T08:56:44;19.02;;;10.55;;
59300;SDS011;45073;52.740;6.784;2023-03-01T08:59:11;19.17;;;10.35;;
59300;SDS011;45073;52.740;6.784;2023-03-01T09:01:37;19.77;;;10.05;;
59300;SDS011;45073;52.740;6.784;2023-03-01T09:04:03;16.48;;;9.48;;
59300;SDS011;45073;52.740;6.784;2023-03-01T09:06:33;19.77;;;11.30;;
59300;SDS011;45073;52.740;6.784;2023-03-01T09:08:59;19.05;;;11.43;;
59300;SDS011;45073;52.740;6.784;2023-03-01T09:11:26;23.35;;;14.13;;
59300;SDS011;45073;52.740;6.784;2023-03-01T09:13:52;19.38;;;11.80;;
59300;SDS011;45073;52.740;6.784;2023-03-01T09:16:19;21.77;;;12.48;;
59300;SDS011;45073;52.740;6.784;2023-03-01T09:18:52;19.15;;;11.82;;
59300;SDS011;45073;52.740;6.784;2023-03-01T09:21:19;23.63;;;11.75;;
59300;SDS011;45073;52.740;6.784;2023-03-01T09:23:47;17.85;;;10.10;;
59300;SDS011;45073;52.740;6.784;2023-03-01T09:26:14;16.52;;;9.05;;
59300;SDS011;45073;52.740;6.784;2023-03-01T09:28:46;17.15;;;9.35;;
59300;SDS011;45073;52.740;6.784;2023-03-01T09:31:13;15.68;;;9.05;;
59300;SDS011;45073;52.740;6.784;2023-03-01T09:33:40;20.40;;;8.02;;
59300;SDS011;45073;52.740;6.784;2023-03-01T09:36:07;11.15;;;5.60;;
59300;SDS011;45073;52.740;6.784;2023-03-01T09:38:36;11.93;;;5.03;;
59300;SDS011;45073;52.740;6.784;2023-03-01T09:41:02;11.05;;;5.22;;
59300;SDS011;45073;52.740;6.784;2023-03-01T09:46:12;9.77;;;4.32;;
59300;SDS011;45073;52.740;6.784;2023-03-01T09:49:01;9.73;;;3.67;;
59300;SDS011;45073;52.740;6.784;2023-03-01T09:51:33;9.55;;;4.53;;
59300;SDS011;45073;52.740;6.784;2023-03-01T09:54:01;9.38;;;3.63;;
59300;SDS011;45073;52.740;6.784;2023-03-01T10:01:35;10.20;;;4.45;;
59300;SDS011;45073;52.740;6.784;2023-03-01T10:09:59;11.77;;;4.25;;
59300;SDS011;45073;52.740;6.784;2023-03-01T10:12:27;12.02;;;3.90;;
59300;SDS011;45073;52.740;6.784;2023-03-01T10:15:11;8.93;;;3.53;;
59300;SDS011;45073;52.740;6.784;2023-03-01T10:20:17;8.48;;;3.30;;
59300;SDS011;45073;52.740;6.784;2023-03-01T10:22:47;10.82;;;3.83;;
59300;SDS011;45073;52.740;6.784;2023-03-01T10:25:22;7.70;;;3.15;;
59300;SDS011;45073;52.740;6.784;2023-03-01T10:28:17;8.35;;;2.92;;
59300;SDS011;45073;52.740;6.784;2023-03-01T10:33:21;7.43;;;3.00;;
59300;SDS011;45073;52.740;6.784;2023-03-01T10:35:49;7.82;;;3.08;;
59300;SDS011;45073;52.740;6.784;2023-03-01T10:38:16;20.50;;;3.92;;
59300;SDS011;45073;52.740;6.784;2023-03-01T10:41:16;8.27;;;2.95;;
59300;SDS011;45073;52.740;6.784;2023-03-01T10:43:47;8.40;;;3.40;;
59300;SDS011;45073;52.740;6.784;2023-03-01T10:46:37;8.20;;;2.75;;
59300;SDS011;45073;52.740;6.784;2023-03-01T10:49:07;8.60;;;2.78;;
59300;SDS011;45073;52.740;6.784;2023-03-01T10:51:43;7.65;;;2.95;;
59300;SDS011;45073;52.740;6.784;2023-03-01T10:54:22;7.97;;;2.88;;
59300;SDS011;45073;52.740;6.784;2023-03-01T10:56:53;8.02;;;2.90;;
59300;SDS011;45073;52.740;6.784;2023-03-01T10:59:28;7.63;;;3.03;;
59300;SDS011;45073;52.740;6.784;2023-03-01T11:04:56;9.27;;;4.28;;
59300;SDS011;45073;52.740;6.784;2023-03-01T11:07:27;7.55;;;3.22;;
59300;SDS011;45073;52.740;6.784;2023-03-01T11:09:53;8.68;;;3.00;;
59300;SDS011;45073;52.740;6.784;2023-03-01T11:12:19;10.68;;;3.60;;
59300;SDS011;45073;52.740;6.784;2023-03-01T11:14:47;8.23;;;3.65;;
59300;SDS011;45073;52.740;6.784;2023-03-01T11:17:21;9.90;;;4.13;;
59300;SDS011;45073;52.740;6.784;2023-03-01T11:22:42;9.93;;;4.13;;
59300;SDS011;45073;52.740;6.784;2023-03-01T11:25:23;8.68;;;3.45;;
59300;SDS011;45073;52.740;6.784;2023-03-01T11:27:51;10.23;;;4.55;;
59300;SDS011;45073;52.740;6.784;2023-03-01T11:30:23;10.63;;;4.22;;
59300;SDS011;45073;52.740;6.784;2023-03-01T11:32:57;8.95;;;4.45;;
59300;SDS011;45073;52.740;6.784;2023-03-01T11:35:30;10.63;;;4.88;;
59300;SDS011;45073;52.740;6.784;2023-03-01T11:43:12;10.35;;;5.20;;
59300;SDS011;45073;52.740;6.784;2023-03-01T11:48:28;10.50;;;5.30;;
59300;SDS011;45073;52.740;6.784;2023-03-01T11:51:05;11.38;;;5.13;;
59300;SDS011;45073;52.740;6.784;2023-03-01T11:54:09;11.35;;;4.93;;
59300;SDS011;45073;52.740;6.784;2023-03-01T11:56:50;9.02;;;4.60;;
59300;SDS011;45073;52.740;6.784;2023-03-01T12:05:04;10.35;;;4.13;;
59300;SDS011;45073;52.740;6.784;2023-03-01T12:10:52;9.77;;;5.35;;
59300;SDS011;45073;52.740;6.784;2023-03-01T12:16:28;8.63;;;4.53;;
59300;SDS011;45073;52.740;6.784;2023-03-01T12:22:09;10.18;;;4.80;;
59300;SDS011;45073;52.740;6.784;2023-03-01T12:27:35;11.38;;;5.20;;
59300;SDS011;45073;52.740;6.784;2023-03-01T12:33:29;9.43;;;4.30;;
59300;SDS011;45073;52.740;6.784;2023-03-01T12:39:06;8.50;;;4.43;;
59300;SDS011;45073;52.740;6.784;2023-03-01T12:44:59;9.25;;;4.80;;
59300;SDS011;45073;52.740;6.784;2023-03-01T12:50:24;11.43;;;6.30;;
59300;SDS011;45073;52.740;6.784;2023-03-01T12:52:55;9.18;;;4.78;;
59300;SDS011;45073;52.740;6.784;2023-03-01T12:55:24;9.85;;;4.95;;
59300;SDS011;45073;52.740;6.784;2023-03-01T13:09:14;9.90;;;6.00;;
59300;SDS011;45073;52.740;6.784;2023-03-01T13:11:46;10.07;;;6.00;;
59300;SDS011;45073;52.740;6.784;2023-03-01T13:14:45;9.95;;;6.30;;
59300;SDS011;45073;52.740;6.784;2023-03-01T13:17:28;9.82;;;6.75;;
59300;SDS011;45073;52.740;6.784;2023-03-01T13:19:57;10.77;;;7.03;;
59300;SDS011;45073;52.740;6.784;2023-03-01T13:22:27;10.35;;;6.78;;
59300;SDS011;45073;52.740;6.784;2023-03-01T13:25:18;11.35;;;6.78;;
59300;SDS011;45073;52.740;6.784;2023-03-01T13:27:45;10.18;;;6.22;;
59300;SDS011;45073;52.740;6.784;2023-03-01T13:35:51;9.98;;;6.05;;
59300;SDS011;45073;52.740;6.784;2023-03-01T13:41:02;10.07;;;6.25;;
59300;SDS011;45073;52.740;6.784;2023-03-01T13:43:33;9.52;;;6.22;;
59300;SDS011;45073;52.740;6.784;2023-03-01T13:46:02;9.15;;;5.93;;
59300;SDS011;45073;52.740;6.784;2023-03-01T13:48:38;9.60;;;6.07;;
59300;SDS011;45073;52.740;6.784;2023-03-01T13:51:05;9.57;;;5.95;;
59300;SDS011;45073;52.740;6.784;2023-03-01T13:53:35;10.10;;;6.47;;
59300;SDS011;45073;52.740;6.784;2023-03-01T13:56:09;10.05;;;6.30;;
59300;SDS011;45073;52.740;6.784;2023-03-01T14:03:53;10.15;;;7.13;;
59300;SDS011;45073;52.740;6.784;2023-03-01T14:06:20;11.13;;;7.20;;
59300;SDS011;45073;52.740;6.784;2023-03-01T14:08:48;9.73;;;6.70;;
59300;SDS011;45073;52.740;6.784;2023-03-01T14:19:23;11.60;;;7.53;;
59300;SDS011;45073;52.740;6.784;2023-03-01T14:24:37;10.77;;;7.53;;
59300;SDS011;45073;52.740;6.784;2023-03-01T14:27:09;10.00;;;7.25;;
59300;SDS011;45073;52.740;6.784;2023-03-01T14:29:38;10.60;;;7.30;;
59300;SDS011;45073;52.740;6.784;2023-03-01T14:34:44;9.88;;;6.47;;
59300;SDS011;45073;52.740;6.784;2023-03-01T14:37:22;10.73;;;7.07;;
59300;SDS011;45073;52.740;6.784;2023-03-01T14:39:57;10.63;;;7.18;;
59300;SDS011;45073;52.740;6.784;2023-03-01T14:42:25;10.57;;;7.60;;
59300;SDS011;45073;52.740;6.784;2023-03-01T14:44:54;10.68;;;7.82;;
59300;SDS011;45073;52.740;6.784;2023-03-01T14:47:32;9.85;;;8.05;;
59300;SDS011;45073;52.740;6.784;2023-03-01T14:50:42;11.27;;;8.48;;
59300;SDS011;45073;52.740;6.784;2023-03-01T14:52:51;11.50;;;8.55;;
59300;SDS011;45073;52.740;6.784;2023-03-01T14:55:29;12.82;;;9.38;;
59300;SDS011;45073;52.740;6.784;2023-03-01T14:58:00;11.73;;;9.07;;
59300;SDS011;45073;52.740;6.784;2023-03-01T15:00:29;11.18;;;9.10;;
59300;SDS011;45073;52.740;6.784;2023-03-01T15:03:02;13.00;;;10.98;;
59300;SDS011;45073;52.740;6.784;2023-03-01T15:05:34;10.63;;;8.70;;
59300;SDS011;45073;52.740;6.784;2023-03-01T15:08:01;11.95;;;8.30;;
59300;SDS011;45073;52.740;6.784;2023-03-01T15:10:29;10.25;;;8.25;;
59300;SDS011;45073;52.740;6.784;2023-03-01T15:13:09;10.32;;;8.18;;
59300;SDS011;45073;52.740;6.784;2023-03-01T15:15:45;12.23;;;8.95;;
59300;SDS011;45073;52.740;6.784;2023-03-01T15:18:19;10.70;;;8.45;;
59300;SDS011;45073;52.740;6.784;2023-03-01T15:20:47;11.82;;;8.00;;
59300;SDS011;45073;52.740;6.784;2023-03-01T15:23:17;11.18;;;8.48;;
59300;SDS011;45073;52.740;6.784;2023-03-01T15:25:53;11.77;;;8.10;;
59300;SDS011;45073;52.740;6.784;2023-03-01T15:28:26;11.05;;;8.10;;
59300;SDS011;45073;52.740;6.784;2023-03-01T15:30:56;10.27;;;7.70;;
59300;SDS011;45073;52.740;6.784;2023-03-01T15:35:52;9.98;;;7.82;;
59300;SDS011;45073;52.740;6.784;2023-03-01T15:41:03;10.18;;;7.72;;
59300;SDS011;45073;52.740;6.784;2023-03-01T15:43:50;11.30;;;7.93;;
59300;SDS011;45073;52.740;6.784;2023-03-01T15:48:57;10.18;;;6.85;;
59300;SDS011;45073;52.740;6.784;2023-03-01T15:51:45;10.90;;;8.00;;
59300;SDS011;45073;52.740;6.784;2023-03-01T15:54:13;9.80;;;7.30;;
59300;SDS011;45073;52.740;6.784;2023-03-01T15:56:43;11.23;;;7.07;;
59300;SDS011;45073;52.740;6.784;2023-03-01T15:59:09;10.15;;;7.22;;
59300;SDS011;45073;52.740;6.784;2023-03-01T16:01:38;9.15;;;7.07;;
59300;SDS011;45073;52.740;6.784;2023-03-01T16:04:04;10.57;;;7.30;;
59300;SDS011;45073;52.740;6.784;2023-03-01T16:06:29;11.68;;;7.20;;
59300;SDS011;45073;52.740;6.784;2023-03-01T16:08:55;8.77;;;7.10;;
59300;SDS011;45073;52.740;6.784;2023-03-01T16:11:21;9.88;;;7.00;;
59300;SDS011;45073;52.740;6.784;2023-03-01T16:13:47;10.90;;;7.25;;
59300;SDS011;45073;52.740;6.784;2023-03-01T16:16:14;10.77;;;7.60;;
59300;SDS011;45073;52.740;6.784;2023-03-01T16:18:45;10.75;;;8.00;;
59300;SDS011;45073;52.740;6.784;2023-03-01T16:21:16;10.60;;;8.07;;
59300;SDS011;45073;52.740;6.784;2023-03-01T16:23:50;11.15;;;8.32;;
59300;SDS011;45073;52.740;6.784;2023-03-01T16:26:17;10.18;;;7.80;;
59300;SDS011;45073;52.740;6.784;2023-03-01T16:28:43;9.93;;;8.07;;
59300;SDS011;45073;52.740;6.784;2023-03-01T16:31:10;11.18;;;8.15;;
59300;SDS011;45073;52.740;6.784;2023-03-01T16:33:36;10.85;;;8.95;;
59300;SDS011;45073;52.740;6.784;2023-03-01T16:36:09;10.52;;;8.25;;
59300;SDS011;45073;52.740;6.784;2023-03-01T16:38:37;10.65;;;8.30;;
59300;SDS011;45073;52.740;6.784;2023-03-01T16:41:03;9.95;;;8.27;;
59300;SDS011;45073;52.740;6.784;2023-03-01T16:43:29;10.68;;;7.68;;
59300;SDS011;45073;52.740;6.784;2023-03-01T16:45:55;10.88;;;8.13;;
59300;SDS011;45073;52.740;6.784;2023-03-01T16:48:21;11.27;;;7.75;;
59300;SDS011;45073;52.740;6.784;2023-03-01T16:50:55;9.82;;;8.20;;